Time;durP1;ratioP1;P1;durP2;ratioP2;P2;SDS_P1;SDS_P2;PMS_P1;PMS_P2;Temp;Humidity;BMP_temperature;BMP_pressure;BME280_temperature;BME280_humidity;BME280_pressure;Samples;Min_cycle;Max_cycle;Signal;HPM_P1;HPM_P2
2022/04/11 00:02:19;;;;;;;;;;;;;;;2.57;69.79;99974.06;5118759;28;19924;-68
2022/04/11 00:04:48;;;;;;;;;;;;;;;2.58;70.04;99975.81;5100370;28;20000;-68
2022/04/11 00:07:18;;;;;;;;;;;;;;;2.57;69.98;99974.06;5118869;28;19919;-68
2022/04/11 00:09:46;;;;;;;;;;;;;;;2.51;70.17;99966.31;5118605;28;19919;-69
2022/04/11 00:12:15;;;;;;;;;;;;;;;2.40;70.53;99974.28;5118194;28;19919;-68
2022/04/11 00:14:43;;;;;;;;;;;;;;;2.42;70.40;99976.06;5118917;28;19926;-68
2022/04/11 00:17:13;;;;;;;;;;;;;;;2.37;70.95;99972.53;5118306;28;19924;-68
2022/04/11 00:19:41;;;;;;;;;;;;;;;2.35;70.88;99968.22;5118794;28;19919;-69
2022/04/11 00:22:10;;;;;;;;;;;;;;;2.33;70.77;99973.19;5118443;28;19919;-68
2022/04/11 00:24:40;;;;;;;;;;;;;;;2.32;70.75;99971.50;5118045;28;19926;-69
2022/04/11 00:27:09;;;;;;;;;;;;;;;2.32;70.62;99975.66;5118453;28;20023;-69
2022/04/11 00:29:37;;;;;;;;;;;;;;;2.29;70.61;99968.84;5117983;28;19919;-69
2022/04/11 00:32:06;;;;;;;;;;;;;;;2.37;70.75;99959.94;5118576;28;20369;-68
2022/04/11 00:34:35;;;;;;;;;;;;;;;2.31;70.54;99964.72;5100357;28;19941;-68
2022/04/11 00:37:04;;;;;;;;;;;;;;;2.28;71.28;99969.63;5117798;28;19934;-68
2022/04/11 00:39:32;;;;;;;;;;;;;;;2.29;70.62;99970.50;5099951;28;19919;-73
2022/04/11 00:42:09;;;;;;;;;;;;;;;2.35;70.50;99970.75;5117841;28;19919;-68
2022/04/11 00:44:37;;;;;;;;;;;;;;;2.29;71.35;99968.00;5118297;28;19919;-68
2022/04/11 00:47:06;;;;;;;;;;;;;;;2.28;71.45;99969.63;5117997;28;19919;-68
2022/04/11 00:49:35;;;;;;;;;;;;;;;2.25;70.87;99974.59;5099294;28;19973;-69
2022/04/11 00:52:04;;;;;;;;;;;;;;;2.24;71.27;99972.84;5117966;28;19942;-68
2022/04/11 00:54:34;;;;;;;;;;;;;;;2.18;70.67;99970.13;5118759;28;20287;-68
2022/04/11 00:57:02;;;;;;;;;;;;;;;2.15;71.60;99980.09;5117728;28;20088;-67
2022/04/11 00:59:33;;;;;;;;;;;;;;;2.19;71.43;99979.38;5117237;28;19924;-68
2022/04/11 01:02:04;;;;;;;;;;;;;;;2.16;70.75;99973.41;5118475;28;19943;-66
2022/04/11 01:04:32;;;;;;;;;;;;;;;2.08;71.80;99982.31;5118207;28;20035;-69
2022/04/11 01:07:05;;;;;;;;;;;;;;;2.06;71.60;99987.28;5117201;28;19932;-68
2022/04/11 01:09:34;;;;;;;;;;;;;;;1.98;71.06;99988.66;5100201;28;20356;-66
2022/04/11 01:12:03;;;;;;;;;;;;;;;1.89;71.74;99988.31;5118110;28;19919;-68
2022/04/11 01:14:33;;;;;;;;;;;;;;;1.84;71.62;99980.59;5118073;28;19984;-68
2022/04/11 01:17:02;;;;;;;;;;;;;;;1.77;71.55;99977.78;5099653;28;20331;-68
2022/04/11 01:19:31;;;;;;;;;;;;;;;1.81;72.54;99979.59;5099404;28;19985;-68
2022/04/11 01:22:01;;;;;;;;;;;;;;;1.94;71.73;99976.75;5117323;28;19924;-67
2022/04/11 01:24:32;;;;;;;;;;;;;;;1.90;71.65;99980.81;5100091;28;19919;-68
2022/04/11 01:27:01;;;;;;;;;;;;;;;1.83;71.80;99983.03;5118166;28;19927;-66
2022/04/11 01:29:30;;;;;;;;;;;;;;;1.66;71.78;99986.53;5100006;28;19960;-66
2022/04/11 01:31:59;;;;;;;;;;;;;;;1.65;71.86;99987.34;5117521;28;19920;-68
2022/04/11 01:34:27;;;;;;;;;;;;;;;1.67;72.59;99990.78;5117779;28;19919;-68
2022/04/11 01:36:57;;;;;;;;;;;;;;;1.64;72.27;99994.03;5099929;28;19946;-68
2022/04/11 01:39:27;;;;;;;;;;;;;;;1.66;72.61;100004.16;5100225;28;19926;-66
2022/04/11 01:41:56;;;;;;;;;;;;;;;1.66;72.74;100016.72;5099191;28;19965;-69
2022/04/11 01:44:24;;;;;;;;;;;;;;;1.67;72.73;100021.84;5118034;28;19924;-66
2022/04/11 01:46:53;;;;;;;;;;;;;;;1.60;73.00;100029.94;5098930;28;20014;-68
2022/04/11 01:49:22;;;;;;;;;;;;;;;1.71;72.92;100022.78;5098903;28;20011;-68
2022/04/11 01:51:50;;;;;;;;;;;;;;;1.76;72.95;100026.34;5098706;28;20408;-68
2022/04/11 01:54:19;;;;;;;;;;;;;;;1.62;72.96;100018.28;5099064;28;19926;-68
2022/04/11 01:56:49;;;;;;;;;;;;;;;1.71;73.17;100015.25;5118384;28;20049;-68
2022/04/11 01:59:18;;;;;;;;;;;;;;;1.76;73.62;100021.31;5103871;28;20022;-68
2022/04/11 02:01:46;;;;;;;;;;;;;;;1.80;73.07;100023.19;5121734;28;19981;-66
2022/04/11 02:04:15;;;;;;;;;;;;;;;1.73;73.81;100021.19;5121245;28;19926;-66
2022/04/11 02:06:44;;;;;;;;;;;;;;;1.72;72.74;100019.50;5102986;28;19945;-69
2022/04/11 02:09:13;;;;;;;;;;;;;;;1.63;73.52;100029.19;5102964;28;19920;-68
2022/04/11 02:11:41;;;;;;;;;;;;;;;1.74;73.28;100025.44;5086423;28;19955;-70
2022/04/11 02:14:12;;;;;;;;;;;;;;;1.77;73.01;100028.09;5102864;28;20006;-70
2022/04/11 02:16:41;;;;;;;;;;;;;;;1.70;73.16;100034.53;5103349;28;20038;-68
2022/04/11 02:19:10;;;;;;;;;;;;;;;1.68;73.16;100037.78;5120384;28;19926;-68
2022/04/11 02:21:39;;;;;;;;;;;;;;;1.53;72.89;100027.97;5121047;28;19955;-67
2022/04/11 02:24:07;;;;;;;;;;;;;;;1.54;73.12;100028.81;5101815;28;20010;-68
2022/04/11 02:26:36;;;;;;;;;;;;;;;1.59;73.17;100033.22;5102482;28;19919;-68
2022/04/11 02:29:06;;;;;;;;;;;;;;;1.55;73.47;100025.50;5120555;28;19972;-68
2022/04/11 02:31:38;;;;;;;;;;;;;;;1.41;73.38;100024.09;5102412;28;19919;-68
2022/04/11 02:34:07;;;;;;;;;;;;;;;1.52;73.91;100037.94;5121413;28;20269;-68
2022/04/11 02:36:36;;;;;;;;;;;;;;;1.61;73.98;100031.63;5102047;28;19919;-69
2022/04/11 02:39:04;;;;;;;;;;;;;;;1.53;73.44;100038.03;5102433;28;19969;-68
2022/04/11 02:41:33;;;;;;;;;;;;;;;1.54;73.69;100033.84;5120368;28;19919;-68
2022/04/11 02:44:02;;;;;;;;;;;;;;;1.50;73.62;100037.03;5120688;28;19920;-69
2022/04/11 02:46:31;;;;;;;;;;;;;;;1.55;73.45;100035.56;5101715;28;19919;-68
2022/04/11 02:49:01;;;;;;;;;;;;;;;1.65;73.67;100025.94;5119669;28;19920;-68
2022/04/11 02:51:41;;;;;;;;;;;;;;;1.69;73.91;100035.31;5102480;28;19927;-69
2022/04/11 02:54:15;;;;;;;;;;;;;;;1.80;74.48;100018.16;5101712;28;19923;-68
2022/04/11 02:56:46;;;;;;;;;;;;;;;1.88;74.38;100034.38;5102157;28;19951;-68
2022/04/11 02:59:15;;;;;;;;;;;;;;;1.89;73.73;100033.59;5120831;28;20285;-69
2022/04/11 03:01:50;;;;;;;;;;;;;;;1.93;74.46;100013.66;5101990;28;19927;-68
2022/04/11 03:04:21;;;;;;;;;;;;;;;1.87;74.30;100020.09;5119542;28;19926;-68
2022/04/11 03:07:01;;;;;;;;;;;;;;;1.96;74.41;100035.56;5102662;28;20258;-68
2022/04/11 03:09:30;;;;;;;;;;;;;;;2.09;73.98;100026.81;5100577;28;19926;-68
2022/04/11 03:11:59;;;;;;;;;;;;;;;2.20;73.87;100026.44;5101506;28;19920;-68
2022/04/11 03:14:30;;;;;;;;;;;;;;;2.22;73.71;100032.38;5101520;28;19920;-68
2022/04/11 03:17:00;;;;;;;;;;;;;;;2.12;74.41;100042.88;5101500;28;19951;-68
2022/04/11 03:19:35;;;;;;;;;;;;;;;2.05;73.71;100038.41;5101032;28;19920;-69
2022/04/11 03:22:04;;;;;;;;;;;;;;;2.05;74.82;100045.97;5097410;28;19927;-68
2022/04/11 03:24:33;;;;;;;;;;;;;;;2.07;74.26;100046.00;5098113;28;19955;-68
2022/04/11 03:27:02;;;;;;;;;;;;;;;2.00;74.84;100052.47;5097313;28;19924;-68
2022/04/11 03:29:35;;;;;;;;;;;;;;;1.93;74.36;100061.47;5098302;28;19962;-68
2022/04/11 03:32:04;;;;;;;;;;;;;;;1.96;74.21;100065.75;5097238;28;19927;-68
2022/04/11 03:34:38;;;;;;;;;;;;;;;1.90;73.98;100062.97;5097662;28;20357;-66
2022/04/11 03:37:07;;;;;;;;;;;;;;;1.74;74.60;100063.19;5096754;28;19933;-67
2022/04/11 03:39:42;;;;;;;;;;;;;;;1.57;74.06;100070.03;5097822;28;20388;-67
2022/04/11 03:42:10;;;;;;;;;;;;;;;1.53;74.30;100067.34;5098881;28;20337;-67
2022/04/11 03:44:39;;;;;;;;;;;;;;;1.44;74.34;100077.03;5098205;28;19970;-67
2022/04/11 03:47:15;;;;;;;;;;;;;;;1.41;74.53;100071.88;5098103;28;19924;-67
2022/04/11 03:49:45;;;;;;;;;;;;;;;1.37;74.63;100070.03;5098844;28;20393;-70
2022/04/11 03:52:22;;;;;;;;;;;;;;;1.44;74.49;100066.97;5081052;28;20266;-67
2022/04/11 03:54:51;;;;;;;;;;;;;;;1.39;74.84;100068.44;5097121;28;19920;-67
2022/04/11 03:57:20;;;;;;;;;;;;;;;1.43;74.57;100065.25;5096855;28;19920;-67
2022/04/11 03:59:51;;;;;;;;;;;;;;;1.37;74.54;100070.03;5097122;28;19998;-68
2022/04/11 04:02:21;;;;;;;;;;;;;;;1.44;75.57;100061.94;5096290;28;19927;-66
2022/04/11 04:04:51;;;;;;;;;;;;;;;1.45;75.24;100064.50;5096924;28;19924;-67
2022/04/11 04:07:25;;;;;;;;;;;;;;;1.43;75.01;100070.28;5097061;28;19920;-66
2022/04/11 04:09:53;;;;;;;;;;;;;;;1.29;75.05;100077.25;5096312;28;19920;-66
2022/04/11 04:12:24;;;;;;;;;;;;;;;1.22;75.98;100075.28;5095943;28;19920;-68
2022/04/11 04:15:03;;;;;;;;;;;;;;;1.21;75.54;100078.56;5098420;28;20457;-68
2022/04/11 04:17:32;;;;;;;;;;;;;;;1.30;75.33;100084.84;5096664;28;19926;-67
2022/04/11 04:20:10;;;;;;;;;;;;;;;1.37;75.72;100085.13;5097210;28;19938;-69
2022/04/11 04:22:39;;;;;;;;;;;;;;;1.41;75.37;100091.97;5107525;28;19927;-68
2022/04/11 04:25:09;;;;;;;;;;;;;;;1.29;75.45;100083.13;5100096;28;19919;-69
2022/04/11 04:27:38;;;;;;;;;;;;;;;1.23;76.10;100079.47;5118066;28;19920;-68
2022/04/11 04:30:08;;;;;;;;;;;;;;;1.14;76.14;100087.50;5099975;28;20385;-69
2022/04/11 04:32:38;;;;;;;;;;;;;;;1.22;76.47;100091.19;5100507;28;19923;-67
2022/04/11 04:35:10;;;;;;;;;;;;;;;1.35;75.81;100098.47;5100018;28;19987;-69
2022/04/11 04:37:42;;;;;;;;;;;;;;;1.50;75.87;100092.34;5099787;28;19927;-69
2022/04/11 04:40:11;;;;;;;;;;;;;;;1.52;76.00;100103.34;5100220;28;19984;-69
2022/04/11 04:42:43;;;;;;;;;;;;;;;1.51;76.08;100104.16;5099900;28;19920;-67
2022/04/11 04:45:16;;;;;;;;;;;;;;;1.53;75.33;100115.13;5100373;28;19926;-68
2022/04/11 04:47:54;;;;;;;;;;;;;;;1.46;75.47;100113.16;5118242;28;19920;-69
2022/04/11 04:50:25;;;;;;;;;;;;;;;1.50;76.12;100120.03;5117932;28;19919;-68
2022/04/11 04:52:54;;;;;;;;;;;;;;;1.58;75.64;100121.22;5117300;28;19920;-69
2022/04/11 04:55:23;;;;;;;;;;;;;;;1.64;76.50;100117.28;5099918;28;19920;-68
2022/04/11 04:57:51;;;;;;;;;;;;;;;1.75;76.01;100117.75;5099606;28;19965;-69
2022/04/11 05:00:20;;;;;;;;;;;;;;;1.89;75.65;100116.63;5098784;28;19959;-67
2022/04/11 05:02:50;;;;;;;;;;;;;;;1.90;75.73;100116.69;5097702;28;19938;-65
2022/04/11 05:05:23;;;;;;;;;;;;;;;1.91;75.49;100122.59;5098533;28;19965;-69
2022/04/11 05:07:57;;;;;;;;;;;;;;;1.97;76.07;100127.84;5117777;28;19919;-69
2022/04/11 05:10:30;;;;;;;;;;;;;;;1.93;75.88;100131.06;5100351;28;20369;-67
2022/04/11 05:12:59;;;;;;;;;;;;;;;1.95;76.03;100132.84;5100401;28;20388;-68
2022/04/11 05:15:28;;;;;;;;;;;;;;;2.02;75.79;100128.91;5098993;28;20320;-69
2022/04/11 05:18:05;;;;;;;;;;;;;;;2.00;75.93;100127.97;5099509;28;19920;-68
2022/04/11 05:20:34;;;;;;;;;;;;;;;2.00;75.91;100127.97;5117844;28;19920;-67
2022/04/11 05:23:04;;;;;;;;;;;;;;;2.03;75.91;100133.16;5099158;28;20373;-68
2022/04/11 05:25:37;;;;;;;;;;;;;;;2.13;75.96;100134.38;5099791;28;20396;-76
2022/04/11 05:28:06;;;;;;;;;;;;;;;2.18;75.91;100133.78;5118752;28;20417;-69
2022/04/11 05:30:37;;;;;;;;;;;;;;;2.25;75.51;100133.22;5099131;28;20312;-68
2022/04/11 05:33:08;;;;;;;;;;;;;;;2.37;75.27;100136.22;5103037;28;19931;-68
2022/04/11 05:35:37;;;;;;;;;;;;;;;2.45;74.81;100137.34;5103348;28;19928;-68
2022/04/11 05:38:13;;;;;;;;;;;;;;;2.52;74.72;100141.81;5102560;28;19959;-68
2022/04/11 05:40:43;;;;;;;;;;;;;;;2.61;75.20;100142.19;5103270;28;19962;-68
2022/04/11 05:43:21;;;;;;;;;;;;;;;2.64;74.61;100132.19;5102512;28;19926;-68
2022/04/11 05:45:49;;;;;;;;;;;;;;;2.75;74.50;100142.69;5120741;28;19920;-68
2022/04/11 05:48:18;;;;;;;;;;;;;;;2.92;74.31;100139.16;5104409;28;19942;-69
2022/04/11 05:50:47;;;;;;;;;;;;;;;2.98;74.26;100134.31;5102526;28;19962;-68
2022/04/11 05:53:19;;;;;;;;;;;;;;;2.94;73.77;100141.72;5102587;28;19941;-69
2022/04/11 05:55:48;;;;;;;;;;;;;;;2.99;74.22;100140.22;5102457;28;19931;-69
2022/04/11 05:58:16;;;;;;;;;;;;;;;3.07;73.68;100139.69;5102650;28;20408;-68
2022/04/11 06:00:46;;;;;;;;;;;;;;;3.09;73.95;100132.19;5101999;28;19920;-68
2022/04/11 06:03:15;;;;;;;;;;;;;;;3.03;73.28;100135.34;5120345;28;19943;-68
2022/04/11 06:05:44;;;;;;;;;;;;;;;2.97;72.89;100137.66;5102390;28;19968;-68
2022/04/11 06:08:13;;;;;;;;;;;;;;;2.99;73.14;100147.78;5101520;28;19919;-68
2022/04/11 06:10:46;;;;;;;;;;;;;;;3.02;73.36;100142.88;5100962;28;19919;-68
2022/04/11 06:13:20;;;;;;;;;;;;;;;2.97;73.58;100149.41;5119061;28;19919;-68
2022/04/11 06:15:50;;;;;;;;;;;;;;;2.89;73.13;100153.28;5101422;28;19959;-68
2022/04/11 06:18:19;;;;;;;;;;;;;;;2.86;73.54;100146.47;5119889;28;19920;-69
2022/04/11 06:20:49;;;;;;;;;;;;;;;2.94;73.65;100149.28;5119783;28;19950;-70
2022/04/11 06:23:19;;;;;;;;;;;;;;;3.13;74.09;100149.13;5100583;28;20369;-70
2022/04/11 06:25:50;;;;;;;;;;;;;;;3.33;73.85;100145.69;5100697;28;19920;-69
2022/04/11 06:28:19;;;;;;;;;;;;;;;3.49;74.48;100155.50;5101044;28;20289;-69
2022/04/11 06:30:48;;;;;;;;;;;;;;;3.53;74.50;100151.44;5117831;28;20391;-69
2022/04/11 06:33:18;;;;;;;;;;;;;;;3.74;73.96;100153.00;5099634;28;20365;-69
2022/04/11 06:35:47;;;;;;;;;;;;;;;4.16;75.04;100160.28;5100577;28;20010;-69
2022/04/11 06:38:16;;;;;;;;;;;;;;;4.48;73.79;100162.16;5099479;28;19923;-67
2022/04/11 06:40:46;;;;;;;;;;;;;;;4.54;73.28;100162.34;5100411;28;19926;-70
2022/04/11 06:43:16;;;;;;;;;;;;;;;4.65;72.79;100155.97;5100574;28;20014;-68
2022/04/11 06:46:00;;;;;;;;;;;;;;;4.74;72.04;100153.69;5100374;28;19920;-67
2022/04/11 06:48:34;;;;;;;;;;;;;;;4.87;71.84;100152.41;5100474;28;19919;-70
2022/04/11 06:51:03;;;;;;;;;;;;;;;5.12;71.67;100155.66;5118359;28;19926;-67
2022/04/11 06:53:32;;;;;;;;;;;;;;;5.25;70.99;100155.22;5119580;28;19920;-68
2022/04/11 06:56:01;;;;;;;;;;;;;;;5.30;70.56;100156.16;5119526;28;19920;-70
2022/04/11 06:58:31;;;;;;;;;;;;;;;5.53;70.23;100161.00;5101514;28;20361;-70
2022/04/11 07:01:00;;;;;;;;;;;;;;;5.73;69.75;100163.28;5109793;28;19919;-70
2022/04/11 07:03:30;;;;;;;;;;;;;;;5.86;69.41;100164.47;5076084;28;19924;-70
2022/04/11 07:05:59;;;;;;;;;;;;;;;5.86;68.87;100167.00;5076678;28;19947;-70
2022/04/11 07:08:28;;;;;;;;;;;;;;;5.83;68.27;100169.44;5078624;28;19924;-70
2022/04/11 07:10:58;;;;;;;;;;;;;;;5.78;68.53;100164.22;5083455;28;19928;-69
2022/04/11 07:13:27;;;;;;;;;;;;;;;5.74;68.42;100164.97;5115580;28;19973;-69
2022/04/11 07:15:57;;;;;;;;;;;;;;;5.85;68.61;100167.81;5110098;28;19924;-69
2022/04/11 07:18:27;;;;;;;;;;;;;;;6.09;68.59;100163.38;5087840;28;20014;-70
2022/04/11 07:20:56;;;;;;;;;;;;;;;6.08;68.07;100166.72;5095300;28;19926;-70
2022/04/11 07:23:29;;;;;;;;;;;;;;;6.20;68.20;100169.56;5105294;28;19931;-69
2022/04/11 07:25:58;;;;;;;;;;;;;;;6.40;67.67;100170.03;5118295;28;19943;-69
2022/04/11 07:28:27;;;;;;;;;;;;;;;6.68;67.75;100180.00;5117406;28;19989;-69
2022/04/11 07:30:57;;;;;;;;;;;;;;;6.97;66.93;100175.56;5116157;28;20019;-68
2022/04/11 07:33:30;;;;;;;;;;;;;;;7.05;66.69;100169.84;5117099;28;19919;-69
2022/04/11 07:35:59;;;;;;;;;;;;;;;6.90;65.60;100179.66;5117638;28;19924;-69
2022/04/11 07:38:28;;;;;;;;;;;;;;;6.95;65.75;100174.69;5097881;28;19973;-69
2022/04/11 07:40:56;;;;;;;;;;;;;;;7.12;65.58;100174.22;5115912;28;19924;-70
2022/04/11 07:43:25;;;;;;;;;;;;;;;7.30;64.92;100163.56;5111975;28;19919;-69
2022/04/11 07:45:53;;;;;;;;;;;;;;;7.51;64.19;100161.44;5115886;28;19920;-68
2022/04/11 07:48:24;;;;;;;;;;;;;;;7.52;62.94;100158.09;5100845;28;19955;-67
2022/04/11 07:50:53;;;;;;;;;;;;;;;7.58;62.55;100160.75;5087466;28;20011;-70
2022/04/11 07:53:21;;;;;;;;;;;;;;;7.70;61.62;100152.50;5099420;28;19926;-69
2022/04/11 07:55:50;;;;;;;;;;;;;;;7.80;60.89;100157.75;5114704;28;19930;-69
2022/04/11 07:58:19;;;;;;;;;;;;;;;8.07;60.28;100153.16;5115553;28;19920;-69
2022/04/11 08:00:51;;;;;;;;;;;;;;;8.21;59.84;100163.56;5115556;28;19919;-68
2022/04/11 08:03:20;;;;;;;;;;;;;;;7.98;60.04;100159.78;5109830;28;19924;-67
2022/04/11 08:05:50;;;;;;;;;;;;;;;7.90;60.35;100152.00;5115729;28;20358;-68
2022/04/11 08:08:19;;;;;;;;;;;;;;;8.00;59.47;100163.19;5115535;28;19986;-68
2022/04/11 08:10:47;;;;;;;;;;;;;;;8.17;60.20;100160.94;5115743;28;19927;-68
2022/04/11 08:13:17;;;;;;;;;;;;;;;8.44;58.89;100162.28;5098500;28;19919;-69
2022/04/11 08:15:46;;;;;;;;;;;;;;;8.60;57.86;100158.25;5086720;28;19924;-69
2022/04/11 08:18:15;;;;;;;;;;;;;;;8.65;57.83;100166.81;5089389;28;19920;-68
2022/04/11 08:20:44;;;;;;;;;;;;;;;8.78;57.46;100166.19;5104822;28;19923;-69
2022/04/11 08:23:14;;;;;;;;;;;;;;;8.97;57.10;100169.81;5114698;28;19920;-69
2022/04/11 08:25:42;;;;;;;;;;;;;;;9.38;59.06;100164.41;5115350;28;19919;-69
2022/04/11 08:28:11;;;;;;;;;;;;;;;9.63;58.06;100164.69;5115102;28;19924;-68
2022/04/11 08:30:39;;;;;;;;;;;;;;;9.42;57.11;100161.06;5115227;28;19927;-69
2022/04/11 08:33:08;;;;;;;;;;;;;;;9.35;56.73;100159.28;5115211;28;19920;-69
2022/04/11 08:35:37;;;;;;;;;;;;;;;9.59;57.05;100152.75;5114833;28;19966;-69
2022/04/11 08:38:05;;;;;;;;;;;;;;;9.79;56.66;100148.72;5114979;28;20382;-70
2022/04/11 08:40:36;;;;;;;;;;;;;;;9.95;55.76;100153.13;5105171;28;19920;-70
2022/04/11 08:43:06;;;;;;;;;;;;;;;10.07;54.52;100153.25;5094793;28;20007;-70
2022/04/11 08:45:38;;;;;;;;;;;;;;;10.07;54.48;100150.69;5094727;28;20373;-69
2022/04/11 08:48:08;;;;;;;;;;;;;;;10.04;53.28;100155.75;5094400;28;19920;-70
2022/04/11 08:50:37;;;;;;;;;;;;;;;10.07;52.99;100160.88;5088325;28;19921;-69
2022/04/11 08:53:05;;;;;;;;;;;;;;;9.99;52.06;100160.81;5083103;28;20289;-71
2022/04/11 08:55:35;;;;;;;;;;;;;;;10.23;52.94;100150.00;5074117;28;20392;-70
2022/04/11 08:58:04;;;;;;;;;;;;;;;10.31;51.92;100150.91;5073962;28;19974;-69
2022/04/11 09:00:32;;;;;;;;;;;;;;;10.42;51.86;100151.84;5074471;28;20266;-70
2022/04/11 09:03:01;;;;;;;;;;;;;;;10.49;50.83;100151.03;5073837;28;19924;-71
2022/04/11 09:05:31;;;;;;;;;;;;;;;10.55;50.83;100156.22;5073578;28;19982;-69
2022/04/11 09:08:00;;;;;;;;;;;;;;;10.74;50.10;100146.97;5096583;28;20426;-70
2022/04/11 09:10:29;;;;;;;;;;;;;;;10.46;48.22;100148.47;5114246;28;19919;-69
2022/04/11 09:13:00;;;;;;;;;;;;;;;10.47;48.93;100147.63;5114560;28;19924;-70
2022/04/11 09:15:29;;;;;;;;;;;;;;;10.69;48.67;100146.94;5106826;28;19927;-70
2022/04/11 09:18:00;;;;;;;;;;;;;;;10.68;47.95;100150.31;5093776;28;20010;-71
2022/04/11 09:20:30;;;;;;;;;;;;;;;10.70;47.46;100150.34;5093879;28;19920;-69
2022/04/11 09:22:59;;;;;;;;;;;;;;;10.75;47.37;100146.97;5093736;28;20015;-71
2022/04/11 09:25:29;;;;;;;;;;;;;;;11.05;48.40;100145.44;5100987;28;19920;-71
2022/04/11 09:28:07;;;;;;;;;;;;;;;11.38;48.01;100150.66;5104965;28;20426;-70
2022/04/11 09:30:36;;;;;;;;;;;;;;;11.02;46.12;100151.38;5074171;28;20278;-71
2022/04/11 09:33:06;;;;;;;;;;;;;;;10.75;46.28;100152.06;5086405;28;20014;-71
2022/04/11 09:35:35;;;;;;;;;;;;;;;10.97;46.47;100147.06;5083855;28;19927;-71
2022/04/11 09:38:08;;;;;;;;;;;;;;;11.12;45.97;100137.81;5109114;28;20010;-71
2022/04/11 09:40:37;;;;;;;;;;;;;;;11.21;45.95;100139.53;5094036;28;19970;-70
2022/04/11 09:43:07;;;;;;;;;;;;;;;11.26;45.68;100135.28;5095535;28;19964;-70
2022/04/11 09:45:40;;;;;;;;;;;;;;;11.39;44.68;100137.06;5093393;28;19966;-69
2022/04/11 09:48:10;;;;;;;;;;;;;;;11.45;43.49;100137.06;5091942;28;19982;-71
2022/04/11 09:50:40;;;;;;;;;;;;;;;11.48;43.65;100137.06;5097118;28;19951;-68
2022/04/11 09:53:11;;;;;;;;;;;;;;;11.31;43.66;100139.56;5094208;28;19920;-70
2022/04/11 09:55:40;;;;;;;;;;;;;;;11.08;43.32;100135.22;5104073;28;20018;-69
2022/04/11 09:58:10;;;;;;;;;;;;;;;10.72;43.71;100146.94;5092153;28;19920;-71
2022/04/11 10:00:39;;;;;;;;;;;;;;;10.61;44.23;100142.59;5092686;28;19951;-70
2022/04/11 10:03:08;;;;;;;;;;;;;;;10.82;44.71;100147.00;5093374;28;19920;-70
2022/04/11 10:05:38;;;;;;;;;;;;;;;11.11;45.13;100142.91;5089529;28;19942;-69
2022/04/11 10:08:07;;;;;;;;;;;;;;;11.16;43.98;100144.63;5093214;28;19920;-70
2022/04/11 10:10:39;;;;;;;;;;;;;;;11.34;43.53;100142.16;5092982;28;19927;-70
2022/04/11 10:13:08;;;;;;;;;;;;;;;11.19;43.30;100148.88;5092614;28;20457;-71
2022/04/11 10:15:39;;;;;;;;;;;;;;;11.13;44.57;100148.88;5090739;28;19920;-70
2022/04/11 10:18:09;;;;;;;;;;;;;;;11.11;44.90;100146.28;5094263;28;19927;-69
2022/04/11 10:20:38;;;;;;;;;;;;;;;11.28;45.70;100154.03;5097597;28;19919;-70
2022/04/11 10:23:31;;;;;;;;;;;;;;;11.54;46.32;100147.31;5068701;28;20270;-70
2022/04/11 10:26:01;;;;;;;;;;;;;;;11.82;46.52;100154.25;5080447;28;19924;-69
2022/04/11 10:28:30;;;;;;;;;;;;;;;11.71;45.86;100153.34;5100967;28;20246;-70
2022/04/11 10:31:10;;;;;;;;;;;;;;;11.39;46.25;100142.16;5117265;28;19920;-71
2022/04/11 10:33:43;;;;;;;;;;;;;;;11.26;47.40;100145.50;5117419;28;19926;-70
2022/04/11 10:36:22;;;;;;;;;;;;;;;10.95;47.79;100143.66;5117482;28;19985;-70
2022/04/11 10:39:05;;;;;;;;;;;;;;;10.98;48.32;100143.69;5117276;28;19924;-70
2022/04/11 10:41:45;;;;;;;;;;;;;;;11.31;48.24;100138.72;5117159;28;19954;-71
2022/04/11 10:44:24;;;;;;;;;;;;;;;11.79;47.28;100133.78;5117403;28;20352;-72
2022/04/11 10:47:15;;;;;;;;;;;;;;;12.17;46.41;100125.25;5104326;28;19924;-70
2022/04/11 10:49:58;;;;;;;;;;;;;;;12.67;46.45;100120.94;5097908;28;19926;-71
2022/04/11 10:52:33;;;;;;;;;;;;;;;12.80;45.72;100130.31;5116220;28;20445;-69
2022/04/11 10:55:05;;;;;;;;;;;;;;;13.04;44.84;100130.25;5117271;28;19973;-69
2022/04/11 10:57:34;;;;;;;;;;;;;;;13.30;44.32;100128.44;5117104;28;19920;-70
2022/04/11 11:00:06;;;;;;;;;;;;;;;13.31;43.17;100129.31;5108163;28;20380;-71
2022/04/11 11:02:49;;;;;;;;;;;;;;;13.20;40.94;100124.22;5094574;28;20006;-71
2022/04/11 11:05:23;;;;;;;;;;;;;;;13.16;39.25;100109.72;5084263;28;19927;-70
2022/04/11 11:08:25;;;;;;;;;;;;;;;13.02;38.55;100115.72;5096369;28;19973;-69
2022/04/11 11:10:54;;;;;;;;;;;;;;;13.12;38.59;100108.03;5078334;28;19966;-70
2022/04/11 11:13:27;;;;;;;;;;;;;;;12.99;39.75;100111.47;5089505;28;19924;-70
2022/04/11 11:15:57;;;;;;;;;;;;;;;12.82;41.64;100108.09;5082820;28;19926;-70
2022/04/11 11:18:26;;;;;;;;;;;;;;;12.53;42.11;100115.84;5076131;28;20369;-70
2022/04/11 11:20:55;;;;;;;;;;;;;;;12.48;42.75;100111.59;5075754;28;19924;-70
2022/04/11 11:23:27;;;;;;;;;;;;;;;12.55;43.28;100103.03;5075501;28;19924;-72
2022/04/11 11:25:56;;;;;;;;;;;;;;;12.67;43.76;100103.00;5075734;28;20011;-71
2022/04/11 11:28:29;;;;;;;;;;;;;;;12.88;43.50;100102.97;5075915;28;19924;-70
2022/04/11 11:30:57;;;;;;;;;;;;;;;13.05;42.76;100096.03;5075588;28;20013;-70
2022/04/11 11:33:27;;;;;;;;;;;;;;;13.00;40.78;100102.94;5075807;28;19926;-70
2022/04/11 11:35:57;;;;;;;;;;;;;;;13.16;41.47;100099.47;5093251;28;20011;-70
2022/04/11 11:38:27;;;;;;;;;;;;;;;13.62;41.29;100099.22;5116209;28;20361;-69
2022/04/11 11:40:56;;;;;;;;;;;;;;;13.35;40.14;100095.97;5115811;28;19969;-71
2022/04/11 11:43:25;;;;;;;;;;;;;;;12.97;40.01;100092.69;5115904;28;19930;-71
2022/04/11 11:45:57;;;;;;;;;;;;;;;12.49;40.22;100085.13;5111129;28;19992;-71
2022/04/11 11:48:27;;;;;;;;;;;;;;;12.17;40.88;100089.44;5116214;28;19920;-70
2022/04/11 11:50:56;;;;;;;;;;;;;;;12.01;41.22;100084.34;5116161;28;20319;-70
2022/04/11 11:53:25;;;;;;;;;;;;;;;11.99;41.54;100080.94;5115615;28;20346;-70
2022/04/11 11:55:57;;;;;;;;;;;;;;;11.91;42.06;100081.78;5115709;28;19931;-69
2022/04/11 11:58:36;;;;;;;;;;;;;;;11.78;43.12;100080.91;5115555;28;19963;-71
2022/04/11 12:01:05;;;;;;;;;;;;;;;11.48;41.80;100075.72;5115932;28;19927;-70
2022/04/11 12:06:13;;;;;;;;;;;;;;;11.80;41.54;100063.88;5115838;28;20030;-70
2022/04/11 12:08:53;;;;;;;;;;;;;;;12.27;40.34;100066.41;5097308;28;19920;-71
2022/04/11 12:11:24;;;;;;;;;;;;;;;12.75;39.67;100060.31;5115599;28;19927;-69
2022/04/11 12:13:59;;;;;;;;;;;;;;;13.19;39.45;100062.72;5115679;28;20316;-69
2022/04/11 12:16:29;;;;;;;;;;;;;;;13.41;38.02;100060.00;5115805;28;19920;-70
2022/04/11 12:18:59;;;;;;;;;;;;;;;13.55;37.03;100054.81;5093676;28;19920;-70
2022/04/11 12:21:31;;;;;;;;;;;;;;;13.72;36.77;100047.00;5076822;28;19926;-70
2022/04/11 12:24:00;;;;;;;;;;;;;;;13.88;36.32;100054.56;5074540;28;19928;-70
2022/04/11 12:26:31;;;;;;;;;;;;;;;13.91;36.48;100044.28;5083286;28;19970;-71
2022/04/11 12:29:01;;;;;;;;;;;;;;;13.85;36.51;100046.03;5094921;28;20270;-71
2022/04/11 12:31:30;;;;;;;;;;;;;;;13.35;35.86;100038.69;5094919;28;20353;-71
2022/04/11 12:34:09;;;;;;;;;;;;;;;13.07;36.85;100042.28;5094612;28;20006;-70
2022/04/11 12:36:38;;;;;;;;;;;;;;;12.81;37.32;100039.81;5094606;28;19951;-71
2022/04/11 12:39:11;;;;;;;;;;;;;;;12.77;38.44;100035.53;5094435;28;19920;-69
2022/04/11 12:41:47;;;;;;;;;;;;;;;12.96;38.87;100037.16;5108785;28;19927;-69
2022/04/11 12:44:16;;;;;;;;;;;;;;;13.19;38.04;100031.97;5114739;28;20436;-70
2022/04/11 12:46:46;;;;;;;;;;;;;;;13.42;38.65;100030.97;5112640;28;19958;-72
2022/04/11 12:49:16;;;;;;;;;;;;;;;13.75;38.47;100019.59;5076496;28;19927;-71
2022/04/11 12:51:45;;;;;;;;;;;;;;;13.83;37.77;100022.94;5091355;28;20400;-71
2022/04/11 12:54:14;;;;;;;;;;;;;;;14.11;38.15;100019.25;5114599;28;19919;-70
2022/04/11 12:56:44;;;;;;;;;;;;;;;14.37;37.19;100018.19;5114927;28;19968;-70
2022/04/11 12:59:27;;;;;;;;;;;;;;;14.30;36.44;100013.97;5113069;28;20395;-69
2022/04/11 13:01:56;;;;;;;;;;;;;;;14.05;37.29;100013.34;5102297;28;20022;-70
2022/04/11 13:04:26;;;;;;;;;;;;;;;13.73;37.57;100013.63;5106945;28;19924;-69
2022/04/11 13:06:54;;;;;;;;;;;;;;;13.37;37.03;100017.31;5100597;28;19920;-70